createdAt,value
2022-12-22T00:00:33.319Z,984.50
2022-12-22T00:01:33.353Z,984.49
2022-12-22T00:02:33.511Z,984.49
2022-12-22T00:03:33.494Z,984.51
2022-12-22T00:04:33.286Z,984.43
2022-12-22T00:05:34.211Z,984.44
2022-12-22T00:06:33.284Z,984.44
2022-12-22T00:07:33.257Z,984.45
2022-12-22T00:08:33.270Z,984.41
2022-12-22T00:09:33.240Z,984.36
2022-12-22T00:10:33.256Z,984.39
2022-12-22T00:11:33.233Z,984.37
2022-12-22T00:12:33.227Z,984.36
2022-12-22T00:13:33.212Z,984.37
2022-12-22T00:14:33.209Z,984.42
2022-12-22T00:15:34.706Z,984.40
2022-12-22T00:17:06.260Z,984.35
2022-12-22T00:17:33.179Z,984.36
2022-12-22T00:18:33.189Z,984.36
2022-12-22T00:19:33.171Z,984.38
2022-12-22T00:20:33.147Z,984.31
2022-12-22T00:21:33.158Z,984.26
2022-12-22T00:22:33.130Z,984.24
2022-12-22T00:23:33.124Z,984.26
2022-12-22T00:24:33.130Z,984.20
2022-12-22T00:25:33.121Z,984.22
2022-12-22T00:27:33.534Z,984.17
2022-12-22T00:28:33.539Z,984.20
2022-12-22T00:29:33.524Z,984.16
2022-12-22T00:30:33.536Z,984.16
2022-12-22T00:31:33.501Z,984.20
2022-12-22T00:32:33.506Z,984.11
2022-12-22T00:33:33.480Z,984.14
2022-12-22T00:34:33.505Z,984.06
2022-12-22T00:35:33.483Z,984.09
2022-12-22T00:36:33.459Z,984.10
2022-12-22T00:37:33.451Z,984.04
2022-12-22T00:38:33.443Z,983.96
2022-12-22T00:39:33.442Z,984.05
2022-12-22T00:40:33.451Z,983.96
2022-12-22T00:41:33.448Z,983.94
2022-12-22T00:42:34.541Z,983.93
2022-12-22T00:43:34.515Z,983.95
2022-12-22T00:44:34.493Z,983.92
2022-12-22T00:45:35.413Z,983.94
2022-12-22T00:46:35.495Z,983.90
2022-12-22T00:47:34.484Z,983.89
2022-12-22T00:48:34.472Z,983.82
2022-12-22T00:49:34.475Z,983.87
2022-12-22T00:50:34.480Z,983.88
2022-12-22T00:51:34.438Z,983.80
2022-12-22T00:52:34.430Z,983.85
2022-12-22T00:53:34.436Z,983.81
2022-12-22T00:54:34.420Z,983.77
2022-12-22T00:55:35.373Z,983.78
2022-12-22T00:56:34.411Z,983.71
2022-12-22T00:57:34.448Z,983.64
2022-12-22T00:58:34.451Z,983.61
2022-12-22T00:59:34.373Z,983.66
2022-12-22T01:00:34.373Z,983.64
2022-12-22T01:01:34.445Z,983.59
2022-12-22T01:02:34.558Z,983.65
2022-12-22T01:03:34.552Z,983.63
2022-12-22T01:04:34.347Z,983.59
2022-12-22T01:05:34.336Z,983.64
2022-12-22T01:06:34.333Z,983.55
2022-12-22T01:07:34.324Z,983.69
2022-12-22T01:08:34.308Z,983.62
2022-12-22T01:09:34.323Z,983.64
2022-12-22T01:10:34.283Z,983.62
2022-12-22T01:11:35.284Z,983.60
2022-12-22T01:12:34.317Z,983.62
2022-12-22T01:13:34.269Z,983.51
2022-12-22T01:14:34.253Z,983.58
2022-12-22T01:15:34.374Z,983.51
2022-12-22T01:16:34.266Z,983.57
2022-12-22T01:17:34.241Z,983.54
2022-12-22T01:18:35.228Z,983.57
2022-12-22T01:19:34.210Z,983.50
2022-12-22T01:20:34.215Z,983.53
2022-12-22T01:21:34.202Z,983.54
2022-12-22T01:22:34.205Z,983.53
2022-12-22T01:23:34.181Z,983.54
2022-12-22T01:24:34.178Z,983.51
2022-12-22T01:25:34.175Z,983.52
2022-12-22T01:26:34.175Z,983.46
2022-12-22T01:27:34.156Z,983.48
2022-12-22T01:28:34.201Z,983.50
2022-12-22T01:29:34.132Z,983.46
2022-12-22T01:30:34.182Z,983.50
2022-12-22T01:31:34.123Z,983.46
2022-12-22T01:32:34.163Z,983.46
2022-12-22T01:33:34.124Z,983.42
2022-12-22T01:34:34.090Z,983.39
2022-12-22T01:35:34.102Z,983.37
2022-12-22T01:36:34.119Z,983.38
2022-12-22T01:37:34.111Z,983.33
2022-12-22T01:38:34.067Z,983.35
2022-12-22T01:39:34.061Z,983.27
2022-12-22T01:40:34.050Z,983.36
2022-12-22T01:41:34.050Z,983.27
2022-12-22T01:42:34.078Z,983.29
2022-12-22T01:43:34.040Z,983.23
2022-12-22T01:44:34.025Z,983.27
2022-12-22T01:45:34.016Z,983.21
2022-12-22T01:46:35.061Z,983.21
2022-12-22T01:47:33.984Z,983.23
2022-12-22T01:48:33.990Z,983.15
2022-12-22T01:49:34.007Z,983.13
2022-12-22T01:50:33.971Z,983.08
2022-12-22T01:51:34.023Z,983.13
2022-12-22T01:52:33.956Z,983.06
2022-12-22T01:53:33.946Z,983.15
2022-12-22T01:54:33.938Z,983.11
2022-12-22T01:55:33.934Z,983.11
2022-12-22T01:56:33.925Z,983.05
2022-12-22T01:57:33.915Z,983.07
2022-12-22T01:58:33.925Z,982.98
2022-12-22T01:59:33.987Z,983.02
2022-12-22T02:00:33.908Z,983.04
2022-12-22T02:01:34.055Z,983.04
2022-12-22T02:02:34.015Z,982.99
2022-12-22T02:03:33.966Z,983.05
2022-12-22T02:04:33.869Z,982.99
2022-12-22T02:05:33.867Z,982.98
2022-12-22T02:06:33.844Z,982.98
2022-12-22T02:07:33.833Z,982.98
2022-12-22T02:08:34.847Z,982.95
2022-12-22T02:09:33.897Z,983.00
2022-12-22T02:10:33.955Z,982.90
2022-12-22T02:11:33.840Z,982.98
2022-12-22T02:12:33.842Z,982.96
2022-12-22T02:13:33.832Z,982.85
2022-12-22T02:14:34.401Z,982.84
2022-12-22T02:15:34.522Z,982.83
2022-12-22T02:16:33.925Z,982.88
2022-12-22T02:17:33.835Z,982.82
2022-12-22T02:18:33.755Z,982.87
2022-12-22T02:19:33.743Z,982.89
2022-12-22T02:20:33.748Z,982.87
2022-12-22T02:21:35.348Z,982.83
2022-12-22T02:22:34.410Z,982.85
2022-12-22T02:23:33.727Z,982.78
2022-12-22T02:24:33.852Z,982.82
2022-12-22T02:25:33.732Z,982.80
2022-12-22T02:26:33.752Z,982.81
2022-12-22T02:27:33.688Z,982.78
2022-12-22T02:28:34.407Z,982.74
2022-12-22T02:29:33.667Z,982.73
2022-12-22T02:30:34.567Z,982.68
2022-12-22T02:31:33.738Z,982.66
2022-12-22T02:32:33.677Z,982.67
2022-12-22T02:33:33.689Z,982.66
2022-12-22T02:34:35.518Z,982.67
2022-12-22T02:35:33.687Z,982.66
2022-12-22T02:36:33.696Z,982.66
2022-12-22T02:37:33.609Z,982.71
2022-12-22T02:38:35.133Z,982.68
2022-12-22T02:39:33.591Z,982.66
2022-12-22T02:40:40.867Z,982.62
2022-12-22T02:41:35.577Z,982.58
2022-12-22T02:42:33.558Z,982.67
2022-12-22T02:43:33.549Z,982.61
2022-12-22T02:44:36.703Z,982.56
2022-12-22T02:45:33.623Z,982.55
2022-12-22T02:46:33.608Z,982.50
2022-12-22T02:47:33.515Z,982.53
2022-12-22T02:48:33.615Z,982.52
2022-12-22T02:49:33.534Z,982.50
2022-12-22T02:50:33.521Z,982.51
2022-12-22T02:51:33.493Z,982.51
2022-12-22T02:52:33.478Z,982.50
2022-12-22T02:53:35.990Z,982.47
2022-12-22T02:54:33.482Z,982.41
2022-12-22T02:55:33.645Z,982.46
2022-12-22T02:56:34.370Z,982.39
2022-12-22T02:57:33.475Z,982.38
2022-12-22T02:59:40.674Z,982.30
2022-12-22T03:00:40.664Z,982.33
2022-12-22T03:01:40.899Z,982.34
2022-12-22T03:02:40.846Z,982.27
2022-12-22T03:03:42.015Z,982.25
2022-12-22T03:04:41.724Z,982.25
2022-12-22T03:05:41.724Z,982.23
2022-12-22T03:06:41.714Z,982.18
2022-12-22T03:07:41.746Z,982.20
2022-12-22T03:08:41.708Z,982.11
2022-12-22T03:09:41.706Z,982.07
2022-12-22T03:10:44.246Z,982.11
2022-12-22T03:11:41.688Z,982.07
2022-12-22T03:12:41.682Z,982.08
2022-12-22T03:13:41.677Z,982.04
2022-12-22T03:14:41.657Z,982.09
2022-12-22T03:15:41.678Z,982.06
2022-12-22T03:16:41.716Z,982.08
2022-12-22T03:17:41.623Z,982.03
2022-12-22T03:18:41.612Z,982.07
2022-12-22T03:19:41.623Z,981.92
2022-12-22T03:20:41.623Z,981.98
2022-12-22T03:21:41.617Z,981.98
2022-12-22T03:22:41.576Z,982.01
2022-12-22T03:23:41.566Z,981.97
2022-12-22T03:24:41.575Z,981.96
2022-12-22T03:25:42.607Z,981.89
2022-12-22T03:26:41.558Z,981.89
2022-12-22T03:27:42.544Z,981.93
2022-12-22T03:28:41.544Z,981.89
2022-12-22T03:29:41.532Z,981.86
2022-12-22T03:30:41.526Z,981.88
2022-12-22T03:31:41.626Z,981.89
2022-12-22T03:32:42.164Z,981.88
2022-12-22T03:33:41.516Z,981.86
2022-12-22T03:34:41.503Z,981.86
2022-12-22T03:35:41.482Z,981.79
2022-12-22T03:36:41.480Z,981.80
2022-12-22T03:37:41.465Z,981.80
2022-12-22T03:38:42.247Z,981.77
2022-12-22T03:39:41.464Z,981.79
2022-12-22T03:40:44.433Z,981.76
2022-12-22T03:41:41.472Z,981.69
2022-12-22T03:42:41.455Z,981.68
2022-12-22T03:43:41.458Z,981.67
2022-12-22T03:44:41.421Z,981.72
2022-12-22T03:45:41.426Z,981.66
2022-12-22T03:46:41.461Z,981.65
2022-12-22T03:47:41.387Z,981.69
2022-12-22T03:48:41.387Z,981.71
2022-12-22T03:49:42.285Z,981.64
2022-12-22T03:50:41.387Z,981.63
2022-12-22T03:51:41.374Z,981.63
2022-12-22T03:52:41.346Z,981.59
2022-12-22T03:53:41.369Z,981.58
2022-12-22T03:54:41.367Z,981.59
2022-12-22T03:55:41.332Z,981.57
2022-12-22T03:57:48.642Z,981.53
2022-12-22T03:58:48.648Z,981.52
2022-12-22T03:59:48.632Z,981.49
2022-12-22T04:00:48.648Z,981.50
2022-12-22T04:01:48.792Z,981.49
2022-12-22T04:02:48.780Z,981.40
2022-12-22T04:03:48.593Z,981.43
2022-12-22T04:04:48.588Z,981.45
2022-12-22T04:05:48.594Z,981.42
2022-12-22T04:06:48.593Z,981.37
2022-12-22T04:07:48.568Z,981.40
2022-12-22T04:08:48.566Z,981.33
2022-12-22T04:09:48.555Z,981.32
2022-12-22T04:10:48.573Z,981.32
2022-12-22T04:11:48.649Z,981.40
2022-12-22T04:12:48.529Z,981.41
2022-12-22T04:13:48.530Z,981.38
2022-12-22T04:14:48.517Z,981.38
2022-12-22T04:15:48.517Z,981.34
2022-12-22T04:16:48.545Z,981.40
2022-12-22T04:17:48.498Z,981.32
2022-12-22T04:18:48.480Z,981.35
2022-12-22T04:19:48.469Z,981.42
2022-12-22T04:20:48.495Z,981.34
2022-12-22T04:21:48.456Z,981.29
2022-12-22T04:22:48.453Z,981.28
2022-12-22T04:23:49.522Z,981.30
2022-12-22T04:24:49.531Z,981.30
2022-12-22T04:25:50.474Z,981.26
2022-12-22T04:26:49.581Z,981.24
2022-12-22T04:27:49.499Z,981.28
2022-12-22T04:28:49.589Z,981.27
2022-12-22T04:29:49.483Z,981.25
2022-12-22T04:30:50.496Z,981.20
2022-12-22T04:31:49.569Z,981.20
2022-12-22T04:32:49.465Z,981.17
2022-12-22T04:35:08.329Z,981.09
2022-12-22T04:36:08.315Z,981.04
2022-12-22T04:37:16.726Z,981.07
2022-12-22T04:38:10.403Z,981.07
2022-12-22T04:39:09.382Z,981.05
2022-12-22T04:40:09.406Z,981.06
2022-12-22T04:41:09.373Z,981.02
2022-12-22T04:42:09.358Z,980.98
2022-12-22T04:43:10.284Z,981.02
2022-12-22T04:44:09.342Z,981.06
2022-12-22T04:45:09.338Z,981.02
2022-12-22T04:46:09.392Z,980.92
2022-12-22T04:47:09.324Z,980.94
2022-12-22T04:48:10.272Z,980.92
2022-12-22T04:49:09.316Z,980.87
2022-12-22T04:50:09.321Z,980.84
2022-12-22T04:51:09.295Z,980.80
2022-12-22T04:52:09.279Z,980.79
2022-12-22T04:53:09.296Z,980.83
2022-12-22T04:54:09.273Z,980.79
2022-12-22T04:55:09.291Z,980.76
2022-12-22T04:56:09.252Z,980.78
2022-12-22T04:57:09.242Z,980.77
2022-12-22T04:58:09.249Z,980.73
2022-12-22T04:59:09.227Z,980.69
2022-12-22T05:00:09.233Z,980.70
2022-12-22T05:01:09.265Z,980.65
2022-12-22T05:02:09.364Z,980.66
2022-12-22T05:03:09.293Z,980.66
2022-12-22T05:04:09.199Z,980.65
2022-12-22T05:05:09.190Z,980.65
2022-12-22T05:06:09.188Z,980.63
2022-12-22T05:07:09.210Z,980.61
2022-12-22T05:08:09.173Z,980.60
2022-12-22T05:09:09.153Z,980.56
2022-12-22T05:10:09.149Z,980.53
2022-12-22T05:11:09.159Z,980.54
2022-12-22T05:12:09.115Z,980.58
2022-12-22T05:13:09.131Z,980.49
2022-12-22T05:14:09.108Z,980.49
2022-12-22T05:15:09.098Z,980.37
2022-12-22T05:16:09.094Z,980.44
2022-12-22T05:17:09.743Z,980.39
2022-12-22T05:18:09.085Z,980.44
2022-12-22T05:19:09.060Z,980.37
2022-12-22T05:20:10.058Z,980.42
2022-12-22T05:21:09.051Z,980.40
2022-12-22T05:22:09.036Z,980.38
2022-12-22T05:23:09.042Z,980.36
2022-12-22T05:24:09.024Z,980.32
2022-12-22T05:25:09.017Z,980.27
2022-12-22T05:26:09.023Z,980.27
2022-12-22T05:27:09.004Z,980.22
2022-12-22T05:28:08.998Z,980.25
2022-12-22T05:29:09.008Z,980.29
2022-12-22T05:30:08.981Z,980.29
2022-12-22T05:31:09.020Z,980.27
2022-12-22T05:32:08.968Z,980.26
2022-12-22T05:33:08.979Z,980.27
2022-12-22T05:34:08.965Z,980.23
2022-12-22T05:35:08.941Z,980.23
2022-12-22T05:36:08.936Z,980.20
2022-12-22T05:37:08.937Z,980.22
2022-12-22T05:38:08.914Z,980.22
2022-12-22T05:39:08.918Z,980.21
2022-12-22T05:40:08.903Z,980.21
2022-12-22T05:41:10.707Z,980.15
2022-12-22T05:42:08.895Z,980.21
2022-12-22T05:43:08.871Z,980.21
2022-12-22T05:44:08.874Z,980.19
2022-12-22T05:45:09.820Z,980.10
2022-12-22T05:46:08.951Z,980.09
2022-12-22T05:47:08.853Z,980.11
2022-12-22T05:48:08.847Z,980.09
2022-12-22T05:49:08.851Z,980.07
2022-12-22T05:50:08.817Z,980.00
2022-12-22T05:51:08.952Z,980.02
2022-12-22T05:52:08.799Z,979.92
2022-12-22T05:53:08.793Z,980.06
2022-12-22T05:54:09.700Z,980.01
2022-12-22T05:55:08.782Z,980.07
2022-12-22T05:56:08.814Z,980.01
2022-12-22T05:57:08.763Z,979.97
2022-12-22T05:58:08.771Z,980.01
2022-12-22T05:59:08.743Z,979.91
2022-12-22T06:00:08.745Z,979.91
2022-12-22T06:01:08.759Z,979.96
2022-12-22T06:02:08.922Z,979.94
2022-12-22T06:03:08.874Z,979.89
2022-12-22T06:04:08.817Z,979.85
2022-12-22T06:05:08.700Z,979.76
2022-12-22T06:06:08.711Z,979.82
2022-12-22T06:07:08.685Z,979.84
2022-12-22T06:08:08.684Z,979.83
2022-12-22T06:09:08.677Z,979.81
2022-12-22T06:10:12.349Z,979.85
2022-12-22T06:11:09.657Z,979.84
2022-12-22T06:12:08.647Z,979.83
2022-12-22T06:13:08.646Z,979.84
2022-12-22T06:14:08.628Z,979.82
2022-12-22T06:15:08.619Z,979.85
2022-12-22T06:16:08.660Z,979.81
2022-12-22T06:17:08.611Z,979.77
2022-12-22T06:18:08.602Z,979.76
2022-12-22T06:19:08.589Z,979.78
2022-12-22T06:20:08.575Z,979.77
2022-12-22T06:21:08.574Z,979.73
2022-12-22T06:22:08.567Z,979.73
2022-12-22T06:23:09.567Z,979.81
2022-12-22T06:24:08.557Z,979.74
2022-12-22T06:25:12.067Z,979.74
2022-12-22T06:26:09.551Z,979.67
2022-12-22T06:27:08.529Z,979.67
2022-12-22T06:28:08.516Z,979.70
2022-12-22T06:29:08.544Z,979.74
2022-12-22T06:30:08.501Z,979.68
2022-12-22T06:31:08.563Z,979.66
2022-12-22T06:32:08.494Z,979.63
2022-12-22T06:33:08.474Z,979.59
2022-12-22T06:34:08.467Z,979.65
2022-12-22T06:35:08.479Z,979.65
2022-12-22T06:36:08.461Z,979.68
2022-12-22T06:37:08.452Z,979.60
2022-12-22T06:38:08.450Z,979.65
2022-12-22T06:39:08.438Z,979.66
2022-12-22T06:40:08.470Z,979.63
2022-12-22T06:41:08.435Z,979.66
2022-12-22T06:42:08.413Z,979.68
2022-12-22T06:43:09.603Z,979.64
2022-12-22T06:44:09.390Z,979.72
2022-12-22T06:45:08.412Z,979.59
2022-12-22T06:46:08.446Z,979.64
2022-12-22T06:47:08.382Z,979.66
2022-12-22T06:48:08.363Z,979.68
2022-12-22T06:49:08.359Z,979.58
2022-12-22T06:50:08.348Z,979.64
2022-12-22T06:51:08.445Z,979.60
2022-12-22T06:52:08.338Z,979.66
2022-12-22T06:53:08.357Z,979.60
2022-12-22T06:54:08.314Z,979.54
2022-12-22T06:55:09.229Z,979.59
2022-12-22T06:56:08.313Z,979.58
2022-12-22T06:57:08.280Z,979.57
2022-12-22T06:58:09.296Z,979.54
2022-12-22T06:59:08.278Z,979.54
2022-12-22T07:00:08.298Z,979.52
2022-12-22T07:01:08.277Z,979.52
2022-12-22T07:02:08.402Z,979.55
2022-12-22T07:03:08.558Z,979.54
2022-12-22T07:04:40.763Z,979.59
2022-12-22T07:05:08.247Z,979.60
2022-12-22T07:06:41.771Z,979.57
2022-12-22T07:07:08.773Z,979.48
2022-12-22T07:08:09.389Z,979.54
2022-12-22T07:09:09.210Z,979.57
2022-12-22T07:10:08.201Z,979.57
2022-12-22T07:11:08.192Z,979.48
2022-12-22T07:12:08.181Z,979.56
2022-12-22T07:13:08.180Z,979.57
2022-12-22T07:14:08.168Z,979.56
2022-12-22T07:15:08.176Z,979.48
2022-12-22T07:16:08.905Z,979.49
2022-12-22T07:17:09.846Z,979.56
2022-12-22T07:18:08.137Z,979.58
2022-12-22T07:19:08.124Z,979.60
2022-12-22T07:20:08.119Z,979.55
2022-12-22T07:21:08.131Z,979.57
2022-12-22T07:22:08.103Z,979.52
2022-12-22T07:23:08.094Z,979.55
2022-12-22T07:24:08.088Z,979.52
2022-12-22T07:25:08.068Z,979.58
2022-12-22T07:26:08.765Z,979.58
2022-12-22T07:27:08.055Z,979.59
2022-12-22T07:28:08.055Z,979.52
2022-12-22T07:29:08.037Z,979.57
2022-12-22T07:30:08.047Z,979.51
2022-12-22T07:31:08.083Z,979.53
2022-12-22T07:32:08.022Z,979.49
2022-12-22T07:33:08.015Z,979.53
2022-12-22T07:34:08.001Z,979.55
2022-12-22T07:35:08.005Z,979.60
2022-12-22T07:36:07.987Z,979.58
2022-12-22T07:37:07.973Z,979.55
2022-12-22T07:38:07.978Z,979.54
2022-12-22T07:39:07.962Z,979.54
2022-12-22T07:40:07.971Z,979.47
2022-12-22T07:41:07.947Z,979.48
2022-12-22T07:42:07.953Z,979.45
2022-12-22T07:43:07.921Z,979.45
2022-12-22T07:44:07.921Z,979.45
2022-12-22T07:45:07.915Z,979.46
2022-12-22T07:46:07.939Z,979.46
2022-12-22T07:47:08.847Z,979.45
2022-12-22T07:48:07.892Z,979.43
2022-12-22T07:49:07.888Z,979.53
2022-12-22T07:50:07.906Z,979.51
2022-12-22T07:51:07.862Z,979.55
2022-12-22T07:52:07.868Z,979.53
2022-12-22T07:53:07.902Z,979.44
2022-12-22T07:54:07.880Z,979.45
2022-12-22T07:55:07.877Z,979.47
2022-12-22T07:56:08.353Z,979.49
2022-12-22T07:57:07.825Z,979.45
2022-12-22T07:58:07.818Z,979.48
2022-12-22T07:59:07.797Z,979.41
2022-12-22T08:00:07.798Z,979.49
2022-12-22T08:01:07.784Z,979.41
2022-12-22T08:02:07.855Z,979.45
2022-12-22T08:03:08.002Z,979.38
2022-12-22T08:04:07.759Z,979.39
2022-12-22T08:05:07.804Z,979.38
2022-12-22T08:06:07.758Z,979.37
2022-12-22T08:07:08.291Z,979.43
2022-12-22T08:08:07.738Z,979.38
2022-12-22T08:09:07.794Z,979.34
2022-12-22T08:10:07.715Z,979.30
2022-12-22T08:11:08.284Z,979.32
2022-12-22T08:12:08.713Z,979.32
2022-12-22T08:13:07.744Z,979.31
2022-12-22T08:14:07.676Z,979.34
2022-12-22T08:15:07.676Z,979.31
2022-12-22T08:16:07.691Z,979.33
2022-12-22T08:17:07.653Z,979.23
2022-12-22T08:18:07.663Z,979.33
2022-12-22T08:19:07.641Z,979.32
2022-12-22T08:20:07.658Z,979.34
2022-12-22T08:21:07.638Z,979.30
2022-12-22T08:22:07.625Z,979.29
2022-12-22T08:23:07.651Z,979.30
2022-12-22T08:24:08.371Z,979.34
2022-12-22T08:25:07.594Z,979.29
2022-12-22T08:26:07.590Z,979.28
2022-12-22T08:27:07.595Z,979.26
2022-12-22T08:28:07.561Z,979.23
2022-12-22T08:29:07.586Z,979.23
2022-12-22T08:30:07.553Z,979.28
2022-12-22T08:31:07.625Z,979.26
2022-12-22T08:32:07.677Z,979.20
2022-12-22T08:33:07.531Z,979.26
2022-12-22T08:34:08.282Z,979.23
2022-12-22T08:35:07.518Z,979.23
2022-12-22T08:36:08.420Z,979.17
2022-12-22T08:37:08.504Z,979.21
2022-12-22T08:38:07.494Z,979.11
2022-12-22T08:39:07.495Z,979.21
2022-12-22T08:40:07.491Z,979.22
2022-12-22T08:41:07.463Z,979.16
2022-12-22T08:42:07.466Z,979.13
2022-12-22T08:43:07.467Z,979.16
2022-12-22T08:44:07.444Z,979.19
2022-12-22T08:45:08.349Z,979.17
2022-12-22T08:46:07.453Z,979.16
2022-12-22T08:47:14.894Z,979.13
2022-12-22T08:48:09.413Z,979.15
2022-12-22T08:49:07.415Z,979.14
2022-12-22T08:50:07.418Z,979.09
2022-12-22T08:51:07.413Z,979.15
2022-12-22T08:52:12.828Z,979.13
2022-12-22T08:53:18.769Z,979.11
2022-12-22T08:54:08.428Z,979.10
2022-12-22T08:55:07.353Z,979.14
2022-12-22T08:56:07.342Z,979.10
2022-12-22T08:57:07.355Z,979.19
2022-12-22T08:58:07.457Z,979.11
2022-12-22T08:59:07.320Z,979.08
2022-12-22T09:00:07.308Z,979.20
2022-12-22T09:01:08.901Z,979.15
2022-12-22T09:02:08.026Z,979.12
2022-12-22T09:03:07.413Z,979.14
2022-12-22T09:04:07.318Z,979.10
2022-12-22T09:05:07.305Z,979.15
2022-12-22T09:06:07.886Z,979.15
2022-12-22T09:07:07.265Z,979.15
2022-12-22T09:08:08.241Z,979.14
2022-12-22T09:09:07.240Z,979.12
2022-12-22T09:10:07.245Z,979.13
2022-12-22T09:12:14.088Z,979.16
2022-12-22T09:13:14.092Z,979.18
2022-12-22T09:14:14.093Z,979.17
2022-12-22T09:15:14.158Z,979.17
2022-12-22T09:16:14.960Z,979.14
2022-12-22T09:17:14.080Z,979.19
2022-12-22T09:18:14.051Z,979.22
2022-12-22T09:19:14.131Z,979.19
2022-12-22T09:20:16.073Z,979.22
2022-12-22T09:21:14.894Z,979.19
2022-12-22T09:22:15.122Z,979.21
2022-12-22T09:23:22.966Z,979.26
2022-12-22T09:24:15.259Z,979.28
2022-12-22T09:25:16.031Z,979.32
2022-12-22T09:26:16.072Z,979.27
2022-12-22T09:27:47.499Z,979.31
2022-12-22T09:28:15.059Z,979.30
2022-12-22T09:29:15.029Z,979.24
2022-12-22T09:30:15.099Z,979.32
2022-12-22T09:31:15.022Z,979.31
2022-12-22T09:32:15.036Z,979.28
2022-12-22T09:33:15.004Z,979.30
2022-12-22T09:34:17.931Z,979.33
2022-12-22T09:35:16.549Z,979.31
2022-12-22T09:36:14.973Z,979.32
2022-12-22T09:37:14.955Z,979.33
2022-12-22T09:38:14.983Z,979.33
2022-12-22T09:39:14.961Z,979.28
2022-12-22T09:40:14.950Z,979.33
2022-12-22T09:41:14.935Z,979.31
2022-12-22T09:42:15.493Z,979.32
2022-12-22T09:43:14.934Z,979.30
2022-12-22T09:44:14.913Z,979.36
2022-12-22T09:45:17.224Z,979.32
2022-12-22T09:46:15.927Z,979.38
2022-12-22T09:47:15.473Z,979.35
2022-12-22T09:48:15.547Z,979.39
2022-12-22T09:49:15.517Z,979.35
2022-12-22T09:50:14.881Z,979.36
2022-12-22T09:51:14.849Z,979.41
2022-12-22T09:52:14.849Z,979.40
2022-12-22T09:53:14.838Z,979.46
2022-12-22T09:54:14.834Z,979.47
2022-12-22T09:55:14.835Z,979.45
2022-12-22T09:56:14.819Z,979.47
2022-12-22T09:57:14.816Z,979.49
2022-12-22T09:58:14.801Z,979.45
2022-12-22T09:59:14.791Z,979.49
2022-12-22T10:00:14.790Z,979.42
2022-12-22T10:01:14.844Z,979.48
2022-12-22T10:02:14.829Z,979.43
2022-12-22T10:03:15.523Z,979.49
2022-12-22T10:04:14.749Z,979.55
2022-12-22T10:05:14.735Z,979.51
2022-12-22T10:06:14.738Z,979.53
2022-12-22T10:07:14.722Z,979.50
2022-12-22T10:08:14.730Z,979.57
2022-12-22T10:09:44.055Z,979.59
2022-12-22T10:10:16.695Z,979.58
2022-12-22T10:11:15.508Z,979.64
2022-12-22T10:12:14.696Z,979.62
2022-12-22T10:13:14.672Z,979.60
2022-12-22T10:14:14.680Z,979.62
2022-12-22T10:15:21.509Z,979.64
2022-12-22T10:16:16.688Z,979.69
2022-12-22T10:17:14.643Z,979.63
2022-12-22T10:18:14.639Z,979.66
2022-12-22T10:19:14.659Z,979.66
2022-12-22T10:20:14.644Z,979.69
2022-12-22T10:21:14.604Z,979.73
2022-12-22T10:22:15.600Z,979.63
2022-12-22T10:23:14.783Z,979.69
2022-12-22T10:24:14.586Z,979.69
2022-12-22T10:25:14.576Z,979.70
2022-12-22T10:26:28.135Z,979.71
2022-12-22T10:27:16.572Z,979.70
2022-12-22T10:28:14.563Z,979.71
2022-12-22T10:29:15.551Z,979.70
2022-12-22T10:30:14.541Z,979.73
2022-12-22T10:31:14.549Z,979.70
2022-12-22T10:32:14.707Z,979.76
2022-12-22T10:33:14.522Z,979.78
2022-12-22T10:34:14.506Z,979.72
2022-12-22T10:35:14.514Z,979.80
2022-12-22T10:36:14.762Z,979.83
2022-12-22T10:37:14.487Z,979.86
2022-12-22T10:38:21.328Z,979.92
2022-12-22T10:39:15.478Z,979.97
2022-12-22T10:40:14.495Z,979.92
2022-12-22T10:41:14.989Z,980.01
2022-12-22T10:42:14.545Z,980.00
2022-12-22T10:43:14.475Z,980.02
2022-12-22T10:44:14.450Z,979.99
2022-12-22T10:45:14.442Z,980.05
2022-12-22T10:46:15.113Z,980.07
2022-12-22T10:47:17.628Z,980.09
2022-12-22T10:48:15.411Z,980.12
2022-12-22T10:49:14.428Z,980.15
2022-12-22T10:50:14.454Z,980.10
2022-12-22T10:51:14.456Z,980.17
2022-12-22T10:52:14.403Z,980.21
2022-12-22T10:53:14.404Z,980.23
2022-12-22T10:54:14.428Z,980.25
2022-12-22T10:55:14.394Z,980.23
2022-12-22T10:56:15.058Z,980.25
2022-12-22T10:57:17.092Z,980.28
2022-12-22T10:58:14.330Z,980.34
2022-12-22T10:59:14.335Z,980.30
2022-12-22T11:00:14.308Z,980.34
2022-12-22T11:01:14.374Z,980.31
2022-12-22T11:02:14.499Z,980.22
2022-12-22T11:03:19.156Z,980.34
2022-12-22T11:04:16.373Z,980.29
2022-12-22T11:05:14.276Z,980.31
2022-12-22T11:06:14.271Z,980.37
2022-12-22T11:07:15.068Z,980.38
2022-12-22T11:08:14.283Z,980.39
2022-12-22T11:09:32.580Z,980.36
2022-12-22T11:10:16.225Z,980.40
2022-12-22T11:11:14.318Z,980.43
2022-12-22T11:12:14.219Z,980.42
2022-12-22T11:13:14.210Z,980.43
2022-12-22T11:14:14.212Z,980.46
2022-12-22T11:15:18.508Z,980.40
2022-12-22T11:16:16.243Z,980.48
2022-12-22T11:17:14.255Z,980.43
2022-12-22T11:18:15.172Z,980.49
2022-12-22T11:19:14.233Z,980.53
2022-12-22T11:20:14.163Z,980.59
2022-12-22T11:21:18.656Z,980.59
2022-12-22T11:22:18.245Z,980.65
2022-12-22T11:23:18.665Z,980.65
2022-12-22T11:24:19.014Z,980.69
2022-12-22T11:25:14.134Z,980.69
2022-12-22T11:26:14.123Z,980.71
2022-12-22T11:27:14.111Z,980.72
2022-12-22T11:28:14.100Z,980.72
2022-12-22T11:29:14.087Z,980.74
2022-12-22T11:30:15.107Z,980.69
2022-12-22T11:31:14.265Z,980.63
2022-12-22T11:32:14.073Z,980.63
2022-12-22T11:33:14.063Z,980.64
2022-12-22T11:34:20.698Z,980.71
2022-12-22T11:35:16.057Z,980.72
2022-12-22T11:36:14.041Z,980.70
2022-12-22T11:37:14.058Z,980.73
2022-12-22T11:38:14.050Z,980.71
2022-12-22T11:39:14.029Z,980.75
2022-12-22T11:40:14.040Z,980.80
2022-12-22T11:41:14.000Z,980.79
2022-12-22T11:42:14.568Z,980.84
2022-12-22T11:43:14.018Z,980.77
2022-12-22T11:44:13.982Z,980.84
2022-12-22T11:45:13.959Z,980.80
2022-12-22T11:46:14.604Z,980.83
2022-12-22T11:47:13.943Z,980.82
2022-12-22T11:48:14.958Z,980.85
2022-12-22T11:49:14.550Z,980.85
2022-12-22T11:51:01.836Z,980.87
2022-12-22T11:51:14.924Z,980.92
2022-12-22T11:52:13.909Z,980.96
2022-12-22T11:53:13.949Z,980.98
2022-12-22T11:54:13.899Z,980.95
2022-12-22T11:55:13.899Z,980.99
2022-12-22T11:56:13.899Z,981.02
2022-12-22T11:57:13.890Z,980.99
2022-12-22T11:58:13.870Z,981.01
2022-12-22T11:59:14.001Z,981.02
2022-12-22T12:00:13.932Z,981.03
2022-12-22T12:01:46.588Z,981.06
2022-12-22T12:02:14.830Z,981.03
2022-12-22T12:03:13.898Z,981.05
2022-12-22T12:04:13.875Z,981.06
2022-12-22T12:05:13.810Z,981.09
2022-12-22T12:06:13.797Z,981.10
2022-12-22T12:07:13.801Z,981.12
2022-12-22T12:08:14.893Z,981.15
2022-12-22T12:09:13.793Z,981.21
2022-12-22T12:10:13.825Z,981.24
2022-12-22T12:11:14.569Z,981.22
2022-12-22T12:12:13.760Z,981.24
2022-12-22T12:13:16.771Z,981.29
2022-12-22T12:14:15.600Z,981.21
2022-12-22T12:15:14.681Z,981.23
2022-12-22T12:16:15.662Z,981.31
2022-12-22T12:17:14.716Z,981.33
2022-12-22T12:18:14.702Z,981.37
2022-12-22T12:19:14.632Z,981.43
2022-12-22T12:20:15.613Z,981.39
2022-12-22T12:21:13.682Z,981.44
2022-12-22T12:22:13.689Z,981.44
2022-12-22T12:23:13.678Z,981.48
2022-12-22T12:24:13.662Z,981.57
2022-12-22T12:25:14.558Z,981.54
2022-12-22T12:26:13.643Z,981.56
2022-12-22T12:27:13.647Z,981.59
2022-12-22T12:28:13.639Z,981.65
2022-12-22T12:29:13.627Z,981.58
2022-12-22T12:30:37.388Z,981.63
2022-12-22T12:31:15.710Z,981.67
2022-12-22T12:32:13.622Z,981.70
2022-12-22T12:33:13.604Z,981.76
2022-12-22T12:34:13.584Z,981.69